Time;durP1;ratioP1;P1;durP2;ratioP2;P2;SDS_P1;SDS_P2;PMS_P1;PMS_P2;Temp;Humidity;BMP_temperature;BMP_pressure;BME280_temperature;BME280_humidity;BME280_pressure;Samples;Min_cycle;Max_cycle;Signal;HPM_P1;HPM_P2
2022/08/18 00:01:47;;;;;;;;;11.80;8.60;;;;;22.61;62.66;100598.19;5097718;27;45422;-53
2022/08/18 00:04:13;;;;;;;;;15.40;14.40;;;;;22.79;62.81;100626.50;5115309;27;45352;-55
2022/08/18 00:06:39;;;;;;;;;12.25;12.25;;;;;22.76;62.77;100621.53;5134981;27;46452;-53
2022/08/18 00:09:05;;;;;;;;;17.60;16.20;;;;;22.67;62.92;100609.34;5119803;27;45365;-52
2022/08/18 00:11:35;;;;;;;;;15.40;14.80;;;;;22.73;62.86;100614.56;5117529;27;45346;-51
2022/08/18 00:14:00;;;;;;;;;13.60;11.60;;;;;22.77;62.91;100625.97;5097934;27;45325;-50
2022/08/18 00:16:25;;;;;;;;;13.75;13.75;;;;;22.73;62.92;100620.16;5099268;27;46373;-50
2022/08/18 00:18:51;;;;;;;;;18.25;17.00;;;;;22.71;62.66;100615.97;5099087;27;45301;-50
2022/08/18 00:21:17;;;;;;;;;15.25;12.25;;;;;22.49;63.43;100617.31;5098949;27;45296;-49
2022/08/18 00:23:42;;;;;;;;;17.00;15.00;;;;;22.56;63.25;100620.63;5080929;27;45292;-51
2022/08/18 00:26:08;;;;;;;;;14.50;14.50;;;;;22.61;62.94;100609.38;5097530;27;46336;-54
2022/08/18 00:28:33;;;;;;;;;18.00;15.75;;;;;22.44;63.01;100589.41;5095455;27;45424;-53
2022/08/18 00:30:59;;;;;;;;;15.50;14.00;;;;;22.59;63.14;100619.19;5099130;27;45304;-52
2022/08/18 00:33:24;;;;;;;;;17.50;15.00;;;;;22.48;63.01;100604.47;5097226;27;45622;-52
2022/08/18 00:35:50;;;;;;;;;17.75;15.75;;;;;22.58;63.17;100615.56;5098838;27;45307;-53
2022/08/18 00:38:15;;;;;;;;;16.00;15.50;;;;;22.56;63.60;100616.97;5098117;27;45292;-52
2022/08/18 00:40:47;;;;;;;;;15.00;14.50;;;;;22.44;62.95;100593.03;5097799;27;45474;-50
2022/08/18 00:43:28;;;;;;;;;16.60;15.40;;;;;22.57;63.26;100618.66;5097268;27;45313;-50
2022/08/18 00:45:53;;;;;;;;;18.80;17.00;;;;;22.59;62.87;100625.63;5098645;27;46777;-51
2022/08/18 00:48:19;;;;;;;;;15.00;14.00;;;;;22.58;63.18;100626.75;5097804;27;45431;-53
2022/08/18 00:50:48;;;;;;;;;19.25;17.50;;;;;22.57;63.18;100622.28;5098997;27;45244;-50
2022/08/18 00:53:35;;;;;;;;;14.40;13.20;;;;;22.53;63.26;100620.38;5096769;27;45409;-53
2022/08/18 00:56:07;;;;;;;;;15.80;14.40;;;;;22.53;63.22;100617.59;5097085;27;46373;-52
2022/08/18 00:58:45;;;;;;;;;18.00;15.40;;;;;22.56;63.20;100630.97;5113814;27;45309;-50
2022/08/18 01:01:11;;;;;;;;;13.20;12.60;;;;;22.55;62.78;100632.09;5097255;27;45482;-52
2022/08/18 01:03:38;;;;;;;;;11.20;10.20;;;;;22.41;63.36;100629.16;5096788;27;45619;-49
2022/08/18 01:06:22;;;;;;;;;17.00;14.80;;;;;22.50;62.83;100640.53;5096861;27;45537;-48
2022/08/18 01:08:48;;;;;;;;;14.00;12.20;;;;;22.50;62.94;100640.53;5096677;27;45321;-50
2022/08/18 01:11:13;;;;;;;;;16.75;16.75;;;;;22.36;63.12;100618.81;5097287;27;45286;-49
2022/08/18 01:13:40;;;;;;;;;17.75;15.50;;;;;22.41;63.04;100638.34;5112880;27;45466;-51
2022/08/18 01:21:54;;;;;;;;;13.40;11.00;;;;;22.35;62.85;100622.75;5114657;27;45807;-53
2022/08/18 01:25:58;;;;;;;;;12.00;11.00;;;;;22.37;62.76;100628.06;5117581;27;45292;-52
2022/08/18 01:27:13;;;;;;;;;14.00;14.00;;;;;22.20;62.39;100602.22;5118176;27;45475;-52
2022/08/18 01:29:39;;;;;;;;;16.00;16.00;;;;;22.33;62.71;100623.06;5100069;27;45436;-54
2022/08/18 01:32:05;;;;;;;;;14.75;14.00;;;;;22.29;62.57;100619.19;5118705;27;45370;-49
2022/08/18 01:34:30;;;;;;;;;15.75;15.00;;;;;22.19;62.68;100608.09;5118695;27;45633;-51
2022/08/18 01:36:56;;;;;;;;;15.75;12.50;;;;;22.27;62.89;100626.19;5099857;27;46035;-48
2022/08/18 01:39:21;;;;;;;;;16.00;16.00;;;;;22.09;63.08;100608.19;5118141;27;45352;-53
2022/08/18 01:41:47;;;;;;;;;19.25;17.00;;;;;22.26;63.00;100636.56;5116964;27;45371;-50
2022/08/18 01:44:12;;;;;;;;;15.00;14.50;;;;;22.26;62.98;100638.50;5118458;27;45562;-50
2022/08/18 01:46:40;;;;;;;;;18.00;15.50;;;;;22.23;62.62;100633.50;5134243;27;46823;-51
2022/08/18 01:49:07;;;;;;;;;14.20;13.40;;;;;22.09;62.64;100616.59;5117871;27;45251;-54
2022/08/18 01:51:33;;;;;;;;;19.20;16.40;;;;;22.18;62.26;100639.97;5118217;27;45327;-50
2022/08/18 01:53:59;;;;;;;;;14.80;14.00;;;;;22.18;62.72;100643.59;5117971;27;45378;-49
2022/08/18 01:56:28;;;;;;;;;17.20;16.20;;;;;22.16;62.80;100636.63;5118095;27;45692;-53
2022/08/18 01:58:54;;;;;;;;;17.00;16.40;;;;;22.19;62.98;100644.41;5116403;27;45273;-48
2022/08/18 02:01:21;;;;;;;;;16.00;16.00;;;;;22.03;63.28;100626.94;5118334;27;45744;-50
2022/08/18 02:03:50;;;;;;;;;18.40;16.40;;;;;21.99;63.42;100626.72;5116493;27;46040;-54
2022/08/18 02:06:18;;;;;;;;;15.60;14.60;;;;;22.10;63.45;100641.44;5134065;27;46619;-50
2022/08/18 02:08:45;;;;;;;;;18.00;16.20;;;;;22.09;63.73;100639.75;5117874;27;45306;-52
2022/08/18 02:11:10;;;;;;;;;17.80;16.80;;;;;22.01;63.70;100644.03;5116487;27;45354;-51
2022/08/18 02:13:36;;;;;;;;;16.50;15.50;;;;;21.97;63.93;100634.56;5105205;27;45220;-51
2022/08/18 02:16:03;;;;;;;;;13.50;13.50;;;;;21.95;64.23;100642.41;5097089;27;45731;-50
2022/08/18 02:18:30;;;;;;;;;13.60;13.60;;;;;21.94;63.98;100640.75;5096782;27;45423;-51
2022/08/18 02:21:07;;;;;;;;;12.60;12.40;;;;;21.89;64.12;100635.19;5097295;27;45316;-50
2022/08/18 02:23:33;;;;;;;;;11.60;11.60;;;;;21.87;64.08;100652.22;5097069;27;45526;-49
2022/08/18 02:26:00;;;;;;;;;15.50;13.50;;;;;21.86;64.05;100649.72;5096682;27;45606;-49
2022/08/18 02:28:27;;;;;;;;;17.80;12.80;;;;;21.85;63.74;100653.66;5094645;27;45275;-51
2022/08/18 02:30:53;;;;;;;;;14.80;14.80;;;;;21.71;63.46;100631.13;5096906;27;45274;-51
2022/08/18 02:33:18;;;;;;;;;11.50;10.75;;;;;21.73;63.54;100652.06;5096951;27;45445;-49
2022/08/18 02:35:45;;;;;;;;;14.00;14.00;;;;;21.74;63.43;100652.88;5096989;27;46449;-49
2022/08/18 02:38:10;;;;;;;;;15.60;15.60;;;;;21.70;62.99;100651.78;5096435;27;45316;-50
2022/08/18 02:40:37;;;;;;;;;14.50;12.75;;;;;21.70;62.93;100658.22;5097086;27;45365;-53
2022/08/18 02:43:07;;;;;;;;;11.80;11.60;;;;;21.55;62.85;100635.97;5097038;27;45307;-49
2022/08/18 02:45:34;;;;;;;;;15.80;15.80;;;;;21.55;62.97;100647.94;5095645;27;45643;-51
2022/08/18 02:48:00;;;;;;;;;13.20;11.60;;;;;21.60;62.98;100653.50;5095887;27;45361;-53
2022/08/18 02:50:25;;;;;;;;;17.50;14.50;;;;;21.52;63.23;100643.78;5096554;27;45491;-53
2022/08/18 02:52:51;;;;;;;;;13.50;13.50;;;;;21.51;63.13;100636.53;5097049;27;45566;-52
2022/08/18 02:55:16;;;;;;;;;13.25;12.00;;;;;21.58;62.77;100643.75;5096322;27;45491;-53
2022/08/18 02:57:43;;;;;;;;;12.50;10.50;;;;;21.38;62.89;100612.03;5095615;27;45392;-52
2022/08/18 03:00:12;;;;;;;;;16.20;16.20;;;;;21.54;62.66;100640.69;5094919;27;45352;-52
2022/08/18 03:02:37;;;;;;;;;12.40;12.40;;;;;21.51;62.82;100632.91;5095576;27;45434;-52
2022/08/18 03:05:04;;;;;;;;;12.75;12.75;;;;;21.38;63.13;100617.63;5095000;27;45451;-53
2022/08/18 03:07:30;;;;;;;;;12.00;9.80;;;;;21.50;63.17;100643.22;5094565;27;45331;-50
2022/08/18 03:09:55;;;;;;;;;10.25;10.25;;;;;21.46;63.07;100636.53;5096546;27;45268;-55
2022/08/18 03:12:21;;;;;;;;;12.50;12.25;;;;;21.46;62.96;100624.56;5098261;27;45368;-48
2022/08/18 03:14:46;;;;;;;;;13.75;12.00;;;;;21.48;62.90;100628.75;5116360;27;46280;-53
2022/08/18 03:17:13;;;;;;;;;12.50;11.50;;;;;21.36;62.67;100608.72;5116884;27;45367;-52
2022/08/18 03:19:39;;;;;;;;;16.60;15.40;;;;;21.51;62.78;100633.72;5115491;27;45625;-51
2022/08/18 03:22:07;;;;;;;;;14.50;13.25;;;;;21.44;63.15;100630.44;5117187;27;45214;-52
2022/08/18 03:24:33;;;;;;;;;12.20;12.20;;;;;21.39;63.16;100622.91;5116175;27;47344;-51
2022/08/18 03:26:58;;;;;;;;;16.00;15.00;;;;;21.45;62.92;100629.31;5116936;27;45386;-51
2022/08/18 03:29:24;;;;;;;;;12.25;12.25;;;;;21.49;62.65;100623.97;5115488;27;45398;-52
2022/08/18 03:31:50;;;;;;;;;13.50;11.75;;;;;21.48;62.68;100627.88;5117193;27;45431;-52
2022/08/18 03:34:19;;;;;;;;;10.50;9.75;;;;;21.39;62.77;100617.34;5132636;27;46231;-54
2022/08/18 03:36:45;;;;;;;;;15.60;11.60;;;;;21.28;62.57;100600.94;5116834;27;45347;-50
2022/08/18 03:39:11;;;;;;;;;12.75;12.25;;;;;21.45;62.69;100629.31;5117478;27;45281;-51
2022/08/18 03:41:38;;;;;;;;;11.75;11.25;;;;;21.41;62.57;100628.22;5120677;27;45380;-50
2022/08/18 03:44:05;;;;;;;;;12.20;11.00;;;;;21.40;62.53;100629.34;5119149;27;45793;-54
2022/08/18 03:46:30;;;;;;;;;12.80;11.20;;;;;21.37;62.68;100618.75;5102157;27;45290;-49
2022/08/18 03:48:57;;;;;;;;;11.50;9.00;;;;;21.38;62.38;100626.84;5120772;27;45544;-50
2022/08/18 03:51:26;;;;;;;;;13.80;10.20;;;;;21.30;62.47;100621.88;5120873;27;45571;-53
2022/08/18 03:53:55;;;;;;;;;12.20;10.40;;;;;21.31;62.26;100629.13;5120385;27;45351;-49
2022/08/18 03:56:24;;;;;;;;;12.60;12.60;;;;;21.13;62.66;100599.88;5120656;27;45373;-55
2022/08/18 03:58:52;;;;;;;;;10.60;10.60;;;;;21.26;62.73;100627.19;5135912;27;45346;-49
2022/08/18 04:01:19;;;;;;;;;12.80;9.20;;;;;21.07;62.76;100603.84;5120364;27;45392;-50
2022/08/18 04:03:52;;;;;;;;;9.60;9.60;;;;;21.22;62.42;100626.09;5119342;27;46710;-52
2022/08/18 04:06:21;;;;;;;;;9.80;9.80;;;;;21.21;62.42;100626.38;5118843;27;45410;-55
2022/08/18 04:08:46;;;;;;;;;13.80;13.20;;;;;21.17;62.56;100617.75;5118456;27;45440;-53
2022/08/18 04:11:14;;;;;;;;;14.00;12.00;;;;;21.02;62.50;100599.09;5120214;27;45279;-52
2022/08/18 04:13:40;;;;;;;;;14.80;13.80;;;;;21.11;62.69;100610.50;5107164;27;46610;-49
2022/08/18 04:16:06;;;;;;;;;14.20;12.80;;;;;21.11;62.60;100614.16;5099312;27;45380;-53
2022/08/18 04:18:31;;;;;;;;;11.75;11.75;;;;;21.11;62.62;100616.09;5098471;27;45407;-53
2022/08/18 04:21:06;;;;;;;;;12.25;12.25;;;;;21.09;62.62;100610.78;5099433;27;45697;-51
2022/08/18 04:23:38;;;;;;;;;12.80;12.80;;;;;21.12;62.55;100612.16;5099170;27;45904;-51
2022/08/18 04:26:04;;;;;;;;;13.20;13.20;;;;;21.15;62.25;100616.34;5099009;27;45251;-53
2022/08/18 04:28:30;;;;;;;;;14.40;14.40;;;;;21.13;62.36;100616.63;5099445;27;45261;-50
2022/08/18 04:30:58;;;;;;;;;10.75;10.75;;;;;21.11;62.74;100619.72;5099055;27;45506;-52
2022/08/18 04:33:25;;;;;;;;;13.40;12.00;;;;;21.09;62.82;100615.56;5099086;27;45395;-50
2022/08/18 04:35:50;;;;;;;;;12.60;11.40;;;;;21.11;62.72;100622.53;5097659;27;45320;-54
2022/08/18 04:38:16;;;;;;;;;12.25;12.25;;;;;21.09;62.44;100623.91;5098096;27;45305;-49
2022/08/18 04:40:41;;;;;;;;;13.75;12.25;;;;;21.09;62.46;100618.34;5099415;27;45269;-51
2022/08/18 04:43:13;;;;;;;;;14.25;13.00;;;;;21.09;62.55;100619.16;5097089;27;45768;-52
2022/08/18 04:45:43;;;;;;;;;10.40;8.80;;;;;20.98;62.54;100606.41;5098788;27;45361;-50
2022/08/18 04:48:09;;;;;;;;;13.60;12.60;;;;;21.07;62.41;100631.75;5098703;27;45342;-50
2022/08/18 04:50:35;;;;;;;;;15.00;11.75;;;;;21.06;62.37;100630.91;5098770;27;45598;-49
2022/08/18 04:55:47;;;;;;;;;11.60;9.40;;;;;21.09;62.22;100629.50;5098600;27;45344;-50
2022/08/18 04:58:12;;;;;;;;;12.40;11.60;;;;;20.95;62.29;100610.59;5099027;27;45973;-48
2022/08/18 05:00:38;;;;;;;;;13.00;13.00;;;;;20.90;62.59;100607.81;5097968;27;45285;-50
2022/08/18 05:03:03;;;;;;;;;8.75;8.75;;;;;20.82;62.48;100605.59;5098114;27;46352;-50
2022/08/18 05:05:29;;;;;;;;;14.50;13.75;;;;;21.05;62.60;100653.50;5098460;27;45230;-53
2022/08/18 05:07:56;;;;;;;;;11.50;11.50;;;;;21.05;62.73;100642.34;5098798;27;45445;-54
2022/08/18 05:10:22;;;;;;;;;12.80;12.20;;;;;21.04;62.62;100646.25;5097700;27;45309;-50
2022/08/18 05:12:47;;;;;;;;;12.75;12.75;;;;;21.07;62.48;100654.06;5103234;27;46371;-49
2022/08/18 05:15:13;;;;;;;;;15.50;13.00;;;;;21.06;62.58;100655.16;5119230;27;45743;-52
2022/08/18 05:17:38;;;;;;;;;11.50;11.25;;;;;21.09;62.57;100660.19;5119573;27;45378;-52
2022/08/18 05:20:07;;;;;;;;;11.50;11.50;;;;;20.93;62.61;100637.09;5119009;27;45313;-49
2022/08/18 05:22:39;;;;;;;;;13.40;12.40;;;;;20.88;62.59;100624.00;5119113;27;46721;-50
2022/08/18 05:25:07;;;;;;;;;11.80;10.80;;;;;21.08;62.82;100658.53;5118652;27;45146;-51
2022/08/18 05:27:34;;;;;;;;;10.40;9.40;;;;;20.88;63.04;100635.16;5118980;27;45480;-53
2022/08/18 05:29:59;;;;;;;;;14.60;14.60;;;;;21.07;62.60;100668.03;5119191;27;45398;-49
2022/08/18 05:32:30;;;;;;;;;13.50;13.25;;;;;21.11;62.83;100669.94;5118297;27;46223;-51
2022/08/18 05:34:56;;;;;;;;;11.60;11.00;;;;;21.07;62.80;100662.44;5119127;27;45682;-51
2022/08/18 05:37:31;;;;;;;;;13.60;12.20;;;;;21.09;62.70;100669.38;5119014;27;45276;-50
2022/08/18 05:39:58;;;;;;;;;13.40;13.00;;;;;21.09;62.78;100666.59;5101192;27;45429;-52
2022/08/18 05:42:25;;;;;;;;;15.20;14.00;;;;;21.08;62.71;100678.88;5117098;27;45678;-53
2022/08/18 05:44:51;;;;;;;;;14.60;13.40;;;;;21.09;62.78;100680.53;5100532;27;45409;-53
2022/08/18 05:47:26;;;;;;;;;11.80;11.80;;;;;21.13;62.63;100695.59;5118629;27;45337;-52
2022/08/18 05:49:52;;;;;;;;;13.80;13.00;;;;;21.11;62.72;100689.47;5119218;27;45364;-53
2022/08/18 05:52:20;;;;;;;;;18.00;16.50;;;;;21.09;62.40;100690.88;5118314;27;45999;-52
2022/08/18 05:57:44;;;;;;;;;16.20;15.00;;;;;20.95;62.82;100688.69;5118562;27;45257;-50
2022/08/18 06:00:10;;;;;;;;;13.60;13.60;;;;;20.91;62.66;100681.19;5118567;27;45352;-51
2022/08/18 06:02:39;;;;;;;;;17.40;14.20;;;;;20.96;62.79;100695.94;5117147;27;45338;-51
2022/08/18 06:05:06;;;;;;;;;13.00;13.00;;;;;21.03;62.51;100706.78;5116612;27;45249;-49
2022/08/18 06:07:45;;;;;;;;;19.40;17.40;;;;;20.90;62.77;100691.50;5116813;27;45299;-48
2022/08/18 06:10:12;;;;;;;;;15.00;15.00;;;;;21.06;62.83;100710.97;5118514;27;45356;-49
2022/08/18 06:12:40;;;;;;;;;13.60;12.60;;;;;21.08;62.74;100701.19;5113798;27;46518;-50
2022/08/18 06:15:25;;;;;;;;;16.40;16.00;;;;;21.10;62.66;100709.28;5096186;27;45322;-50
2022/08/18 06:18:04;;;;;;;;;20.60;20.40;;;;;21.09;62.73;100699.25;5096736;27;45366;-50
2022/08/18 06:20:53;;;;;;;;;16.80;16.80;;;;;21.10;62.67;100698.13;5096455;27;45579;-52
2022/08/18 06:23:59;;;;;;;;;19.40;19.40;;;;;21.15;62.70;100694.47;5096050;27;45567;-51
2022/08/18 06:26:45;;;;;;;;;16.40;15.40;;;;;21.15;62.77;100698.13;5085811;27;45360;-54
2022/08/18 06:29:46;;;;;;;;;19.60;18.80;;;;;21.08;63.23;100701.19;5096484;27;45292;-53
2022/08/18 06:32:37;;;;;;;;;17.00;16.80;;;;;20.90;62.57;100660.81;5097629;27;45281;-51
2022/08/18 06:35:07;;;;;;;;;24.20;22.80;;;;;21.29;62.69;100714.25;5096589;27;46202;-51
2022/08/18 06:40:36;;;;;;;;;22.00;17.40;;;;;21.38;62.84;100709.72;5096517;27;45400;-51
2022/08/18 06:43:02;;;;;;;;;25.50;22.50;;;;;21.29;62.77;100689.13;5097660;27;45684;-50
2022/08/18 06:45:36;;;;;;;;;24.75;22.50;;;;;21.31;62.42;100696.09;5096902;27;46651;-48
2022/08/18 06:48:33;;;;;;;;;23.40;22.80;;;;;21.46;62.60;100713.91;5079038;27;45325;-48
2022/08/18 06:51:00;;;;;;;;;24.60;23.40;;;;;21.29;62.08;100687.16;5079470;27;45502;-50
2022/08/18 06:53:53;;;;;;;;;25.00;22.60;;;;;21.43;62.83;100717.25;5081161;27;45456;-53
2022/08/18 06:56:25;;;;;;;;;27.00;24.80;;;;;21.31;62.65;100710.06;5104984;27;46907;-50
2022/08/18 06:58:54;;;;;;;;;27.20;23.60;;;;;21.39;62.99;100716.97;5116328;27;45433;-55
2022/08/18 07:01:19;;;;;;;;;23.60;23.40;;;;;21.41;62.99;100714.75;5117734;27;45367;-51
2022/08/18 07:03:50;;;;;;;;;25.25;23.50;;;;;21.54;62.55;100724.47;5116071;27;45317;-55
2022/08/18 07:06:21;;;;;;;;;27.00;27.00;;;;;21.59;62.69;100732.81;5116297;27;46381;-48
2022/08/18 07:08:51;;;;;;;;;31.40;25.60;;;;;21.77;62.57;100742.53;5117055;27;45336;-50
2022/08/18 07:11:22;;;;;;;;;26.40;26.40;;;;;21.64;62.43;100713.25;5098907;27;45294;-53
2022/08/18 07:13:52;;;;;;;;;32.60;29.80;;;;;21.78;61.94;100726.59;5112139;27;45605;-47
2022/08/18 07:16:32;;;;;;;;;30.00;26.00;;;;;21.16;62.15;100655.13;5095265;27;46549;-53
2022/08/18 07:19:19;;;;;;;;;25.20;24.60;;;;;21.52;62.70;100724.75;5096765;27;45376;-50
2022/08/18 07:21:45;;;;;;;;;32.00;31.00;;;;;21.56;62.92;100715.81;5095427;27;45441;-50
2022/08/18 07:24:38;;;;;;;;;29.80;24.80;;;;;21.77;64.68;100719.34;5078184;27;45803;-49
2022/08/18 07:27:08;;;;;;;;;30.80;29.60;;;;;22.00;62.75;100728.13;5102993;27;47500;-51
2022/08/18 07:29:39;;;;;;;;;32.40;29.80;;;;;22.04;62.27;100721.66;5095149;27;45460;-51
2022/08/18 07:32:17;;;;;;;;;31.20;29.20;;;;;22.02;61.90;100720.28;5095883;27;45371;-54
2022/08/18 07:34:48;;;;;;;;;28.60;28.20;;;;;22.09;62.04;100729.19;5095432;27;45382;-51
2022/08/18 07:37:18;;;;;;;;;35.20;30.20;;;;;22.15;61.42;100730.00;5111759;27;46690;-52
2022/08/18 07:40:36;;;;;;;;;31.00;30.00;;;;;22.14;61.86;100734.75;5095885;27;45356;-53
2022/08/18 07:43:11;;;;;;;;;37.80;33.20;;;;;22.08;61.74;100733.09;5042664;27;47103;-53
2022/08/18 07:45:41;;;;;;;;;32.80;31.00;;;;;21.98;61.64;100717.25;5078781;27;45573;-52
2022/08/18 07:48:24;;;;;;;;;33.60;30.00;;;;;22.19;61.76;100745.03;5094332;27;45890;-52
2022/08/18 07:51:12;;;;;;;;;31.60;29.60;;;;;22.23;61.42;100746.13;5095055;27;45392;-53
2022/08/18 07:53:53;;;;;;;;;37.80;29.40;;;;;22.25;61.20;100741.09;5095079;27;45326;-51
2022/08/18 07:56:36;;;;;;;;;37.80;31.60;;;;;22.31;61.08;100748.31;5081778;27;45434;-51
2022/08/18 07:59:01;;;;;;;;;28.40;27.00;;;;;22.34;60.92;100746.88;5078383;27;46776;-56
2022/08/18 08:01:33;;;;;;;;;25.25;25.25;;;;;22.33;60.84;100739.63;5095538;27;45502;-49
2022/08/18 08:04:02;;;;;;;;;34.00;30.40;;;;;22.29;61.24;100730.16;5095977;27;45945;-53
2022/08/18 08:06:32;;;;;;;;;35.40;30.00;;;;;22.19;61.20;100720.72;5094629;27;45492;-54
2022/08/18 08:09:11;;;;;;;;;32.40;29.20;;;;;22.22;61.04;100722.13;5077662;27;45816;-55
2022/08/18 08:11:43;;;;;;;;;29.80;28.40;;;;;22.42;60.65;100743.47;5094553;27;45808;-53
2022/08/18 08:14:27;;;;;;;;;33.20;31.20;;;;;22.42;60.95;100734.25;5095550;27;45453;-55
2022/08/18 08:17:10;;;;;;;;;32.60;30.20;;;;;22.41;60.78;100730.63;5114119;27;45277;-50
2022/08/18 08:19:42;;;;;;;;;29.00;26.00;;;;;22.46;61.18;100733.38;5114073;27;45457;-49
2022/08/18 08:22:26;;;;;;;;;32.80;30.40;;;;;22.53;60.97;100735.03;5113063;27;45444;-48
2022/08/18 08:25:18;;;;;;;;;29.40;27.00;;;;;22.59;60.92;100719.88;5115592;27;45346;-52
2022/08/18 08:28:06;;;;;;;;;37.20;31.60;;;;;22.46;60.43;100693.38;5115910;27;45395;-55
2022/08/18 08:30:32;;;;;;;;;31.80;28.80;;;;;22.59;60.32;100711.47;5119108;27;45653;-49
2022/08/18 08:33:09;;;;;;;;;31.80;28.00;;;;;22.60;60.45;100711.19;5100162;27;45453;-53
2022/08/18 08:35:44;;;;;;;;;31.00;28.20;;;;;22.70;60.57;100709.41;5096401;27;45415;-48
2022/08/18 08:38:36;;;;;;;;;36.40;32.20;;;;;22.73;60.15;100706.84;5104296;27;45282;-52
2022/08/18 08:41:04;;;;;;;;;33.20;29.60;;;;;22.82;60.06;100709.84;5090233;27;45927;-54
2022/08/18 08:43:37;;;;;;;;;34.20;32.00;;;;;22.83;59.85;100705.91;5105148;27;45469;-55
2022/08/18 08:46:11;;;;;;;;;28.60;28.60;;;;;22.80;60.11;100712.13;5093434;27;45385;-52
2022/08/18 08:48:41;;;;;;;;;29.00;24.60;;;;;22.75;59.52;100695.38;5098655;27;45215;-56
2022/08/18 08:51:32;;;;;;;;;27.60;27.20;;;;;22.79;59.42;100707.63;5079430;27;47264;-57
2022/08/18 08:54:14;;;;;;;;;28.00;26.00;;;;;22.95;59.27;100718.69;5097377;27;45482;-53
2022/08/18 08:56:43;;;;;;;;;33.60;30.40;;;;;22.86;59.55;100722.13;5098985;27;45378;-56
2022/08/18 08:59:14;;;;;;;;;30.80;29.20;;;;;22.76;59.20;100697.03;5073758;27;45355;-55
2022/08/18 09:01:45;;;;;;;;;32.20;29.60;;;;;23.07;59.17;100738.69;5090883;27;45643;-56
2022/08/18 09:04:35;;;;;;;;;30.80;28.80;;;;;23.17;59.38;100742.50;5093868;27;45432;-55
2022/08/18 09:07:32;;;;;;;;;29.80;27.80;;;;;23.25;58.82;100737.06;5098488;27;45336;-54
2022/08/18 09:10:25;;;;;;;;;33.00;30.40;;;;;23.28;58.60;100736.47;5097855;27;45517;-53
2022/08/18 09:13:04;;;;;;;;;32.60;30.40;;;;;23.25;58.63;100730.63;5097710;27;46539;-51
2022/08/18 09:15:42;;;;;;;;;28.40;27.80;;;;;23.38;58.34;100738.34;5111194;27;45456;-53
2022/08/18 09:18:23;;;;;;;;;31.00;27.20;;;;;23.41;57.59;100743.34;5096892;27;45471;-56
2022/08/18 09:20:54;;;;;;;;;34.40;29.80;;;;;23.46;57.55;100745.25;5098129;27;45442;-53
2022/08/18 09:23:25;;;;;;;;;28.60;27.20;;;;;23.53;57.12;100745.72;5096489;27;45433;-53
2022/08/18 09:25:53;;;;;;;;;27.40;27.00;;;;;23.58;58.06;100742.00;5079730;27;45399;-51
2022/08/18 09:28:40;;;;;;;;;28.40;27.20;;;;;23.61;57.41;100732.19;5097112;27;45280;-52
2022/08/18 09:31:05;;;;;;;;;29.60;28.40;;;;;23.76;57.08;100745.16;5089908;27;45646;-52
2022/08/18 09:33:41;;;;;;;;;29.50;28.00;;;;;23.82;56.88;100743.94;5098076;27;46520;-49
2022/08/18 09:36:25;;;;;;;;;31.40;27.80;;;;;23.87;55.83;100746.69;5096377;27;46052;-55
2022/08/18 09:42:07;;;;;;;;;28.20;25.80;;;;;23.78;56.18;100717.66;5095960;27;45449;-52
2022/08/18 09:44:45;;;;;;;;;29.20;28.00;;;;;23.84;55.56;100719.25;5097275;27;45635;-55
2022/08/18 09:47:11;;;;;;;;;26.80;25.00;;;;;23.98;55.45;100735.31;5097353;27;45382;-51
2022/08/18 09:49:45;;;;;;;;;26.80;22.80;;;;;24.06;55.85;100734.63;5097802;27;45588;-55
2022/08/18 09:52:20;;;;;;;;;27.80;22.60;;;;;24.20;56.09;100746.78;5095822;27;45619;-54
2022/08/18 09:54:57;;;;;;;;;23.00;19.20;;;;;24.10;54.76;100724.50;5097227;27;46135;-54
2022/08/18 09:57:32;;;;;;;;;19.80;19.40;;;;;24.36;54.18;100741.75;5097152;27;45327;-53
2022/08/18 10:00:10;;;;;;;;;20.00;17.60;;;;;24.45;54.43;100741.03;5096407;27;45348;-54
2022/08/18 10:02:36;;;;;;;;;23.60;20.80;;;;;24.41;54.10;100724.00;5097766;27;45471;-55
2022/08/18 10:05:24;;;;;;;;;26.25;26.00;;;;;24.59;53.85;100735.50;5095795;27;45806;-57
2022/08/18 10:07:52;;;;;;;;;25.20;23.20;;;;;24.65;54.19;100739.84;5097404;27;45458;-57
2022/08/18 10:10:50;;;;;;;;;24.00;21.20;;;;;24.69;53.95;100737.25;5097141;27;45363;-56
2022/08/18 10:13:39;;;;;;;;;23.20;22.20;;;;;24.59;53.14;100704.63;5097924;27;45511;-53
2022/08/18 10:16:20;;;;;;;;;19.60;18.40;;;;;24.85;52.34;100723.78;5097513;27;45726;-53
2022/08/18 10:19:13;;;;;;;;;23.20;21.20;;;;;24.85;52.38;100715.38;5097153;27;45717;-52
2022/08/18 10:22:03;;;;;;;;;20.60;20.00;;;;;24.93;51.13;100705.41;5097310;27;45288;-55
2022/08/18 10:24:53;;;;;;;;;22.40;18.80;;;;;24.94;51.26;100699.50;5097296;27;45457;-57
2022/08/18 10:27:56;;;;;;;;;16.60;16.60;;;;;25.01;50.91;100696.25;5080101;27;45761;-54
2022/08/18 10:30:28;;;;;;;;;26.80;24.00;;;;;25.02;51.15;100704.38;5032780;28;45579;-56
2022/08/18 10:32:53;;;;;;;;;22.40;20.20;;;;;24.90;51.10;100662.81;5104867;27;45399;-55
2022/08/18 10:35:34;;;;;;;;;19.75;19.25;;;;;25.12;50.99;100691.28;5116523;27;45422;-56
2022/08/18 10:38:20;;;;;;;;;23.00;20.00;;;;;24.64;51.41;100606.31;5077320;27;46552;-55
2022/08/18 10:41:05;;;;;;;;;23.60;21.40;;;;;25.26;50.63;100686.50;5090811;27;45432;-55
2022/08/18 10:43:50;;;;;;;;;19.20;18.60;;;;;25.34;49.94;100686.91;5071771;27;45600;-54
2022/08/18 10:46:27;;;;;;;;;19.00;18.60;;;;;25.40;49.96;100689.28;5076541;27;45578;-51
2022/08/18 10:49:00;;;;;;;;;19.60;16.00;;;;;25.26;49.52;100664.03;5095298;27;45508;-51
2022/08/18 10:51:35;;;;;;;;;16.60;16.60;;;;;25.48;49.44;100684.91;5095087;27;45384;-61
2022/08/18 10:54:26;;;;;;;;;17.20;15.40;;;;;25.60;48.53;100683.56;5109130;27;45357;-60
2022/08/18 10:56:54;;;;;;;;;19.20;17.40;;;;;25.49;49.25;100657.66;5115704;27;45467;-59
2022/08/18 10:59:38;;;;;;;;;14.20;14.00;;;;;25.71;48.11;100684.97;5115586;27;45910;-55
2022/08/18 11:02:13;;;;;;;;;12.60;12.60;;;;;25.82;48.65;100689.22;5090441;27;45337;-56
2022/08/18 11:04:43;;;;;;;;;15.80;14.20;;;;;25.94;47.88;100693.44;5078440;27;45600;-56
2022/08/18 11:07:41;;;;;;;;;15.60;13.80;;;;;25.86;47.07;100669.72;5116248;27;45473;-54
2022/08/18 11:10:20;;;;;;;;;16.00;14.20;;;;;25.95;47.03;100667.00;5114408;27;45426;-53
2022/08/18 11:12:56;;;;;;;;;13.80;13.40;;;;;26.14;47.15;100671.59;5095264;27;45334;-52
2022/08/18 11:15:34;;;;;;;;;15.60;14.40;;;;;26.16;46.20;100672.09;5093025;27;45407;-57
2022/08/18 11:18:03;;;;;;;;;15.00;15.00;;;;;26.26;46.86;100685.94;5094411;27;45548;-53
2022/08/18 11:20:30;;;;;;;;;13.60;13.00;;;;;26.27;46.01;100676.34;5094564;27;46444;-56
2022/08/18 11:22:59;;;;;;;;;12.00;12.00;;;;;26.23;46.43;100676.16;5028873;27;45693;-56
2022/08/18 11:25:30;;;;;;;;;15.20;14.80;;;;;26.30;46.49;100666.44;5047770;28;45922;-58
2022/08/18 11:27:55;;;;;;;;;18.40;16.00;;;;;26.49;46.73;100680.28;5068280;27;45507;-56
2022/08/18 11:30:21;;;;;;;;;18.50;14.50;;;;;26.56;46.57;100677.03;5071638;27;45751;-56
2022/08/18 11:32:47;;;;;;;;;17.25;16.50;;;;;26.64;46.38;100681.88;5069456;28;45470;-53
2022/08/18 11:35:16;;;;;;;;;15.60;14.40;;;;;26.51;46.17;100677.97;5052158;28;45670;-60
2022/08/18 11:37:56;;;;;;;;;14.40;13.40;;;;;26.61;45.79;100677.72;5053071;28;45877;-57
2022/08/18 11:40:37;;;;;;;;;13.60;12.80;;;;;26.65;45.71;100666.63;5068913;28;46911;-55
2022/08/18 11:43:09;;;;;;;;;17.80;15.80;;;;;26.82;46.02;100679.16;5054398;28;45935;-55
2022/08/18 11:46:09;;;;;;;;;15.20;13.00;;;;;26.85;44.49;100679.31;5070275;27;45552;-54
2022/08/18 11:48:36;;;;;;;;;13.20;10.60;;;;;26.93;43.90;100677.72;5069253;28;45800;-53
2022/08/18 11:51:10;;;;;;;;;11.80;11.60;;;;;27.03;44.39;100685.88;5069593;28;45836;-51